createdAt,value
2023-05-05T00:00:16.616Z,65.30
2023-05-05T00:01:10.077Z,65.22
2023-05-05T00:01:43.613Z,65.34
2023-05-05T00:02:18.104Z,65.22
2023-05-05T00:02:51.709Z,65.28
2023-05-05T00:03:26.632Z,65.29
2023-05-05T00:04:00.368Z,65.23
2023-05-05T00:04:33.956Z,65.33
2023-05-05T00:05:08.447Z,65.30
2023-05-05T00:05:42.643Z,65.22
2023-05-05T00:06:16.493Z,65.27
2023-05-05T00:06:51.091Z,65.12
2023-05-05T00:07:24.864Z,64.77
2023-05-05T00:07:59.432Z,64.58
2023-05-05T00:08:33.469Z,64.22
2023-05-05T00:09:07.541Z,64.17
2023-05-05T00:09:41.876Z,64.21
2023-05-05T00:10:15.948Z,64.38
2023-05-05T00:10:50.949Z,64.34
2023-05-05T00:11:28.418Z,64.37
2023-05-05T00:12:51.093Z,64.33
2023-05-05T00:14:36.036Z,64.40
2023-05-05T00:16:12.157Z,64.43
2023-05-05T00:17:48.579Z,64.36
2023-05-05T00:19:16.264Z,64.52
2023-05-05T00:21:04.635Z,64.90
2023-05-05T00:21:37.965Z,64.83
2023-05-05T00:22:11.956Z,65.13
2023-05-05T00:22:45.110Z,65.20
2023-05-05T00:23:20.007Z,65.40
2023-05-05T00:23:53.588Z,65.65
2023-05-05T00:24:26.864Z,65.68
2023-05-05T00:25:00.161Z,65.68
2023-05-05T00:25:33.741Z,65.77
2023-05-05T00:26:07.043Z,65.80
2023-05-05T00:26:40.185Z,65.89
2023-05-05T00:27:13.450Z,65.86
2023-05-05T00:27:46.941Z,65.96
2023-05-05T00:28:20.212Z,65.88
2023-05-05T00:28:53.560Z,65.95
2023-05-05T00:29:26.896Z,66.01
2023-05-05T00:30:01.711Z,66.05
2023-05-05T00:30:35.242Z,66.12
2023-05-05T00:31:08.804Z,66.15
2023-05-05T00:31:42.420Z,66.15
2023-05-05T00:32:15.842Z,66.29
2023-05-05T00:32:51.314Z,66.30
2023-05-05T00:33:24.699Z,66.34
2023-05-05T00:33:57.922Z,66.45
2023-05-05T00:34:31.177Z,66.45
2023-05-05T00:35:06.900Z,66.45
2023-05-05T00:35:40.624Z,66.55
2023-05-05T00:36:15.026Z,66.62
2023-05-05T00:36:48.693Z,66.64
2023-05-05T00:37:22.013Z,66.63
2023-05-05T00:37:55.564Z,66.65
2023-05-05T00:38:29.038Z,66.70
2023-05-05T00:39:02.434Z,66.76
2023-05-05T00:39:35.811Z,66.81
2023-05-05T00:40:10.714Z,66.81
2023-05-05T00:40:44.012Z,66.89
2023-05-05T00:41:17.628Z,66.81
2023-05-05T00:41:50.899Z,66.80
2023-05-05T00:42:24.755Z,66.78
2023-05-05T00:42:59.713Z,66.78
2023-05-05T00:43:33.074Z,66.77
2023-05-05T00:44:06.515Z,66.81
2023-05-05T00:44:41.718Z,66.86
2023-05-05T00:45:15.962Z,66.73
2023-05-05T00:46:02.565Z,66.75
2023-05-05T00:46:36.112Z,66.57
2023-05-05T00:47:09.822Z,66.69
2023-05-05T00:47:52.506Z,66.67
2023-05-05T00:48:26.888Z,66.63
2023-05-05T00:49:01.526Z,66.69
2023-05-05T00:49:36.009Z,66.65
2023-05-05T00:50:10.123Z,66.51
2023-05-05T00:50:45.014Z,66.24
2023-05-05T00:51:19.095Z,66.04
2023-05-05T00:51:52.600Z,65.82
2023-05-05T00:52:26.604Z,65.71
2023-05-05T00:53:04.776Z,65.66
2023-05-05T00:53:41.464Z,65.62
2023-05-05T00:54:14.924Z,65.63
2023-05-05T00:54:48.505Z,65.56
2023-05-05T00:55:22.325Z,65.57
2023-05-05T00:55:55.653Z,65.61
2023-05-05T00:56:28.970Z,65.54
2023-05-05T00:57:05.567Z,65.54
2023-05-05T00:57:38.948Z,65.59
2023-05-05T00:58:13.497Z,65.62
2023-05-05T00:58:47.089Z,65.71
2023-05-05T00:59:21.273Z,65.77
2023-05-05T00:59:56.070Z,65.91
2023-05-05T01:00:30.280Z,65.93
2023-05-05T01:01:04.009Z,65.98
2023-05-05T01:01:37.633Z,66.10
2023-05-05T01:02:10.946Z,66.12
2023-05-05T01:02:45.000Z,66.20
2023-05-05T01:03:19.211Z,66.23
2023-05-05T01:03:53.597Z,66.18
2023-05-05T01:04:28.114Z,66.25
2023-05-05T01:05:03.817Z,66.35
2023-05-05T01:05:56.035Z,66.43
2023-05-05T01:06:49.143Z,66.50
2023-05-05T01:07:22.560Z,66.50
2023-05-05T01:08:21.133Z,66.75
2023-05-05T01:09:12.348Z,66.77
2023-05-05T01:10:20.756Z,66.94
2023-05-05T01:11:03.413Z,66.85
2023-05-05T01:11:52.035Z,66.96
2023-05-05T01:12:37.695Z,66.99
2023-05-05T01:13:29.064Z,67.16
2023-05-05T01:14:19.144Z,67.08
2023-05-05T01:15:12.683Z,67.13
2023-05-05T01:16:10.868Z,67.19
2023-05-05T01:16:59.535Z,67.07
2023-05-05T01:17:42.661Z,67.23
2023-05-05T01:18:24.750Z,67.20
2023-05-05T01:19:07.072Z,67.23
2023-05-05T01:19:58.182Z,67.37
2023-05-05T01:20:41.491Z,67.31
2023-05-05T01:21:29.222Z,67.37
2023-05-05T01:22:07.300Z,67.38
2023-05-05T01:22:45.851Z,67.42
2023-05-05T01:23:36.853Z,67.43
2023-05-05T01:24:47.751Z,67.42
2023-05-05T01:25:56.842Z,67.36
2023-05-05T01:26:43.408Z,67.21
2023-05-05T01:27:59.528Z,67.24
2023-05-05T01:28:50.088Z,67.16
2023-05-05T01:29:48.451Z,67.18
2023-05-05T01:30:55.378Z,67.27
2023-05-05T01:31:44.864Z,67.23
2023-05-05T01:32:25.216Z,67.18
2023-05-05T01:33:04.302Z,67.26
2023-05-05T01:33:46.473Z,67.41
2023-05-05T01:34:43.172Z,67.61
2023-05-05T01:35:27.407Z,67.40
2023-05-05T01:36:06.151Z,67.43
2023-05-05T01:36:44.427Z,67.48
2023-05-05T01:37:24.792Z,67.53
2023-05-05T01:38:09.878Z,67.53
2023-05-05T01:38:46.107Z,67.53
2023-05-05T01:39:22.205Z,67.55
2023-05-05T01:39:59.505Z,67.31
2023-05-05T01:40:38.496Z,67.33
2023-05-05T01:41:16.199Z,67.24
2023-05-05T01:41:53.915Z,67.16
2023-05-05T01:42:29.609Z,67.03
2023-05-05T01:43:06.568Z,66.97
2023-05-05T01:43:41.636Z,66.90
2023-05-05T01:44:16.947Z,66.93
2023-05-05T01:44:53.430Z,66.79
2023-05-05T01:45:32.353Z,66.79
2023-05-05T01:46:07.981Z,66.78
2023-05-05T01:46:41.496Z,66.83
2023-05-05T01:47:20.192Z,66.79
2023-05-05T01:47:56.213Z,66.86
2023-05-05T01:48:33.729Z,66.96
2023-05-05T01:50:46.958Z,66.94
2023-05-05T01:51:24.734Z,66.99
2023-05-05T01:51:59.155Z,66.85
2023-05-05T01:52:34.399Z,66.85
2023-05-05T01:53:09.811Z,66.86
2023-05-05T01:53:43.979Z,67.01
2023-05-05T01:54:18.887Z,67.07
2023-05-05T01:54:53.528Z,67.03
2023-05-05T01:55:29.968Z,67.02
2023-05-05T01:56:04.083Z,66.96
2023-05-05T01:56:40.516Z,67.04
2023-05-05T01:57:15.346Z,67.01
2023-05-05T01:57:50.523Z,67.06
2023-05-05T01:58:26.361Z,67.02
2023-05-05T01:59:02.099Z,67.06
2023-05-05T01:59:38.262Z,67.07
2023-05-05T02:00:12.320Z,67.14
2023-05-05T02:00:49.883Z,67.14
2023-05-05T02:01:26.178Z,67.19
2023-05-05T02:02:02.994Z,67.28
2023-05-05T02:02:39.161Z,67.18
2023-05-05T02:03:14.987Z,67.25
2023-05-05T02:03:51.479Z,67.21
2023-05-05T02:04:28.370Z,67.20
2023-05-05T02:05:05.392Z,67.29
2023-05-05T02:05:40.288Z,67.39
2023-05-05T02:06:16.734Z,67.36
2023-05-05T02:06:53.318Z,67.46
2023-05-05T02:07:28.330Z,67.40
2023-05-05T02:08:04.359Z,67.48
2023-05-05T02:08:39.727Z,67.61
2023-05-05T02:09:14.659Z,67.71
2023-05-05T02:09:49.013Z,67.72
2023-05-05T02:10:22.423Z,67.64
2023-05-05T02:10:56.501Z,67.63
2023-05-05T02:11:30.192Z,67.68
2023-05-05T02:12:04.925Z,67.65
2023-05-05T02:12:41.396Z,67.67
2023-05-05T02:13:18.422Z,67.66
2023-05-05T02:13:53.445Z,67.61
2023-05-05T02:14:29.747Z,67.62
2023-05-05T02:15:04.098Z,67.61
2023-05-05T02:15:38.405Z,67.62
2023-05-05T02:16:13.512Z,67.56
2023-05-05T02:16:47.525Z,67.50
2023-05-05T02:17:23.265Z,67.58
2023-05-05T02:17:58.363Z,67.59
2023-05-05T02:18:35.917Z,67.57
2023-05-05T02:19:09.604Z,67.68
2023-05-05T02:19:46.050Z,67.73
2023-05-05T02:20:20.646Z,67.80
2023-05-05T02:20:54.627Z,67.74
2023-05-05T02:21:28.812Z,67.75
2023-05-05T02:22:02.802Z,67.71
2023-05-05T02:22:36.412Z,67.72
2023-05-05T02:23:10.048Z,67.71
2023-05-05T02:23:48.430Z,67.77
2023-05-05T02:24:22.036Z,67.96
2023-05-05T02:24:55.707Z,67.87
2023-05-05T02:25:38.652Z,67.90
2023-05-05T02:26:14.224Z,67.91
2023-05-05T02:26:50.508Z,67.89
2023-05-05T02:27:25.414Z,68.08
2023-05-05T02:28:01.037Z,67.97
2023-05-05T02:28:56.217Z,67.97
2023-05-05T02:29:34.858Z,68.03
2023-05-05T02:30:11.500Z,68.08
2023-05-05T02:30:50.477Z,68.05
2023-05-05T02:31:27.585Z,67.91
2023-05-05T02:32:07.068Z,67.84
2023-05-05T02:32:45.415Z,67.76
2023-05-05T02:33:21.645Z,67.70
2023-05-05T02:33:58.139Z,67.63
2023-05-05T02:34:36.903Z,67.43
2023-05-05T02:35:22.898Z,67.37
2023-05-05T02:35:57.701Z,67.39
2023-05-05T02:36:36.947Z,67.34
2023-05-05T02:37:13.036Z,67.29
2023-05-05T02:38:02.713Z,67.31
2023-05-05T02:38:43.309Z,67.24
2023-05-05T02:39:25.249Z,67.22
2023-05-05T02:40:02.880Z,67.19
2023-05-05T02:40:40.872Z,67.20
2023-05-05T02:41:19.191Z,67.13
2023-05-05T02:41:55.570Z,67.15
2023-05-05T02:42:38.843Z,67.21
2023-05-05T02:43:19.990Z,67.30
2023-05-05T02:43:55.696Z,67.39
2023-05-05T02:44:32.114Z,67.49
2023-05-05T02:45:11.533Z,67.45
2023-05-05T02:45:46.486Z,67.53
2023-05-05T02:46:20.145Z,67.61
2023-05-05T02:46:54.963Z,67.60
2023-05-05T02:47:37.810Z,67.56
2023-05-05T02:48:13.295Z,67.47
2023-05-05T02:48:46.854Z,67.46
2023-05-05T02:49:20.272Z,67.47
2023-05-05T02:49:54.615Z,67.46
2023-05-05T02:50:27.872Z,67.42
2023-05-05T02:51:07.997Z,67.47
2023-05-05T02:51:43.026Z,67.45
2023-05-05T02:52:23.057Z,67.44
2023-05-05T02:52:56.663Z,67.49
2023-05-05T02:53:30.438Z,67.53
2023-05-05T02:54:04.720Z,67.54
2023-05-05T02:54:38.113Z,67.61
2023-05-05T02:55:16.136Z,67.60
2023-05-05T02:55:53.986Z,67.60
2023-05-05T02:56:48.281Z,67.50
2023-05-05T02:57:31.776Z,67.50
2023-05-05T02:58:08.986Z,67.51
2023-05-05T02:59:15.335Z,67.60
2023-05-05T03:00:08.586Z,67.55
2023-05-05T03:00:45.898Z,67.62
2023-05-05T03:01:51.586Z,67.59
2023-05-05T03:02:35.730Z,67.54
2023-05-05T03:03:22.450Z,67.58
2023-05-05T03:04:17.845Z,67.66
2023-05-05T03:05:04.637Z,67.70
2023-05-05T03:05:46.015Z,67.75
2023-05-05T03:06:25.232Z,67.72
2023-05-05T03:07:04.336Z,67.78
2023-05-05T03:07:53.800Z,67.79
2023-05-05T03:08:35.279Z,67.71
2023-05-05T03:09:33.346Z,67.82
2023-05-05T03:10:14.050Z,67.83
2023-05-05T03:11:05.324Z,67.85
2023-05-05T03:11:46.693Z,67.93
2023-05-05T03:12:26.413Z,67.99
2023-05-05T03:13:10.610Z,67.87
2023-05-05T03:13:56.506Z,67.92
2023-05-05T03:14:41.262Z,67.93
2023-05-05T03:15:15.525Z,67.94
2023-05-05T03:15:52.751Z,68.08
2023-05-05T03:16:29.963Z,68.03
2023-05-05T03:17:04.381Z,68.06
2023-05-05T03:17:39.886Z,68.08
2023-05-05T03:18:15.879Z,68.13
2023-05-05T03:18:52.757Z,68.07
2023-05-05T03:19:28.048Z,68.18
2023-05-05T03:20:06.074Z,68.19
2023-05-05T03:20:41.102Z,68.25
2023-05-05T03:21:15.991Z,68.32
2023-05-05T03:21:49.588Z,68.33
2023-05-05T03:22:23.266Z,68.31
2023-05-05T03:22:57.500Z,68.41
2023-05-05T03:23:33.037Z,68.41
2023-05-05T03:24:17.193Z,68.40
2023-05-05T03:24:53.412Z,68.21
2023-05-05T03:25:45.871Z,68.27
2023-05-05T03:26:25.076Z,68.11
2023-05-05T03:26:58.416Z,68.11
2023-05-05T03:27:35.034Z,68.09
2023-05-05T03:28:08.468Z,68.07
2023-05-05T03:28:42.012Z,68.07
2023-05-05T03:29:23.368Z,67.97
2023-05-05T03:29:56.997Z,68.06
2023-05-05T03:30:30.895Z,68.08
2023-05-05T03:31:04.604Z,68.08
2023-05-05T03:31:38.221Z,68.02
2023-05-05T03:32:14.383Z,68.03
2023-05-05T03:32:47.783Z,68.05
2023-05-05T03:33:21.194Z,68.02
2023-05-05T03:33:54.482Z,68.13
2023-05-05T03:34:29.024Z,68.11
2023-05-05T03:35:03.468Z,68.09
2023-05-05T03:35:38.454Z,68.16
2023-05-05T03:36:13.165Z,68.14
2023-05-05T03:36:46.530Z,68.28
2023-05-05T03:37:20.952Z,68.19
2023-05-05T03:37:57.090Z,68.34
2023-05-05T03:38:30.366Z,68.35
2023-05-05T03:39:04.165Z,68.42
2023-05-05T03:39:38.705Z,68.37
2023-05-05T03:40:13.242Z,68.45
2023-05-05T03:40:47.534Z,68.56
2023-05-05T03:41:23.909Z,68.58
2023-05-05T03:41:57.638Z,68.65
2023-05-05T03:42:31.589Z,68.70
2023-05-05T03:43:05.033Z,68.75
2023-05-05T03:43:39.564Z,68.76
2023-05-05T03:44:13.024Z,68.75
2023-05-05T03:44:46.265Z,68.83
2023-05-05T03:45:19.846Z,68.80
2023-05-05T03:45:53.823Z,68.86
2023-05-05T03:46:27.051Z,68.95
2023-05-05T03:47:00.514Z,68.90
2023-05-05T03:47:34.345Z,68.95
2023-05-05T03:48:09.897Z,68.94
2023-05-05T03:48:43.976Z,68.91
2023-05-05T03:49:17.985Z,68.86
2023-05-05T03:49:52.682Z,68.91
2023-05-05T03:50:26.156Z,68.74
2023-05-05T03:50:59.942Z,68.59
2023-05-05T03:51:33.614Z,68.53
2023-05-05T03:52:06.801Z,68.45
2023-05-05T03:52:40.231Z,68.39
2023-05-05T03:53:13.464Z,68.38
2023-05-05T03:53:47.728Z,68.33
2023-05-05T03:54:21.474Z,68.23
2023-05-05T03:54:54.877Z,68.24
2023-05-05T03:55:28.152Z,68.12
2023-05-05T03:56:01.588Z,68.09
2023-05-05T03:56:35.045Z,68.10
2023-05-05T03:57:08.266Z,68.09
2023-05-05T03:57:41.523Z,68.16
2023-05-05T03:58:14.686Z,68.20
2023-05-05T03:58:48.667Z,68.16
2023-05-05T03:59:22.062Z,68.19
2023-05-05T03:59:55.979Z,68.13
2023-05-05T04:00:29.326Z,68.20
2023-05-05T04:01:02.575Z,68.18
2023-05-05T04:01:36.104Z,68.21
2023-05-05T04:02:09.459Z,68.18
2023-05-05T04:02:43.853Z,68.24
2023-05-05T04:03:18.246Z,68.33
2023-05-05T04:03:54.194Z,68.30
2023-05-05T04:04:27.784Z,68.34
2023-05-05T04:05:01.439Z,68.37
2023-05-05T04:05:35.277Z,68.46
2023-05-05T04:06:09.152Z,68.35
2023-05-05T04:06:42.403Z,68.52
2023-05-05T04:07:15.889Z,68.48
2023-05-05T04:07:50.180Z,68.55
2023-05-05T04:08:23.406Z,68.58
2023-05-05T04:08:56.919Z,68.62
2023-05-05T04:09:31.827Z,68.66
2023-05-05T04:10:06.051Z,68.77
2023-05-05T04:10:39.757Z,68.71
2023-05-05T04:11:13.337Z,68.72
2023-05-05T04:11:46.685Z,68.71
2023-05-05T04:12:20.179Z,68.66
2023-05-05T04:12:53.394Z,68.56
2023-05-05T04:13:26.643Z,68.42
2023-05-05T04:14:01.019Z,68.42
2023-05-05T04:14:34.773Z,68.48
2023-05-05T04:15:10.325Z,68.51
2023-05-05T04:15:46.717Z,68.51
2023-05-05T04:16:20.854Z,68.52
2023-05-05T04:16:54.239Z,68.48
2023-05-05T04:17:27.481Z,68.50
2023-05-05T04:18:01.038Z,68.46
2023-05-05T04:18:34.715Z,68.53
2023-05-05T04:19:08.475Z,68.54
2023-05-05T04:19:41.999Z,68.52
2023-05-05T04:20:15.412Z,68.47
2023-05-05T04:20:48.768Z,68.55
2023-05-05T04:21:22.816Z,68.55
2023-05-05T04:21:56.288Z,68.61
2023-05-05T04:22:29.611Z,68.60
2023-05-05T04:23:03.002Z,68.68
2023-05-05T04:23:36.459Z,68.73
2023-05-05T04:24:10.010Z,68.73
2023-05-05T04:24:43.460Z,68.72
2023-05-05T04:25:16.788Z,68.75
2023-05-05T04:25:50.370Z,68.68
2023-05-05T04:26:23.693Z,68.76
2023-05-05T04:26:58.037Z,68.67
2023-05-05T04:27:31.585Z,68.72
2023-05-05T04:28:05.534Z,68.67
2023-05-05T04:28:39.031Z,68.65
2023-05-05T04:29:12.421Z,68.58
2023-05-05T04:29:46.014Z,68.56
2023-05-05T04:30:19.521Z,68.61
2023-05-05T04:30:52.889Z,68.60
2023-05-05T04:31:26.420Z,68.64
2023-05-05T04:31:59.837Z,68.53
2023-05-05T04:32:33.566Z,68.60
2023-05-05T04:33:06.882Z,68.49
2023-05-05T04:33:40.513Z,68.60
2023-05-05T04:34:13.874Z,68.64
2023-05-05T04:34:47.272Z,68.71
2023-05-05T04:35:20.618Z,68.63
2023-05-05T04:35:54.156Z,68.55
2023-05-05T04:36:27.664Z,68.61
2023-05-05T04:37:01.212Z,68.66
2023-05-05T04:37:35.189Z,68.68
2023-05-05T04:38:08.448Z,68.65
2023-05-05T04:38:41.804Z,68.73
2023-05-05T04:39:15.191Z,68.77
2023-05-05T04:39:48.587Z,68.74
2023-05-05T04:40:22.009Z,68.88
2023-05-05T04:40:55.482Z,68.82
2023-05-05T04:41:30.108Z,68.82
2023-05-05T04:42:04.143Z,68.79
2023-05-05T04:42:37.862Z,68.80
2023-05-05T04:43:11.169Z,68.90
2023-05-05T04:43:44.868Z,68.82
2023-05-05T04:44:18.498Z,68.86
2023-05-05T04:44:51.953Z,68.82
2023-05-05T04:45:25.330Z,68.86
2023-05-05T04:45:58.846Z,69.02
2023-05-05T04:46:35.100Z,68.90
2023-05-05T04:47:08.481Z,68.95
2023-05-05T04:47:42.313Z,69.01
2023-05-05T04:48:15.786Z,69.04
2023-05-05T04:48:49.107Z,69.07
2023-05-05T04:49:22.231Z,69.04
2023-05-05T04:49:56.253Z,69.14
2023-05-05T04:50:29.743Z,69.13
2023-05-05T04:51:07.120Z,69.21
2023-05-05T04:51:43.563Z,69.26
2023-05-05T04:52:16.967Z,69.24
2023-05-05T04:52:52.503Z,69.29
2023-05-05T04:53:26.144Z,69.28
2023-05-05T04:53:59.399Z,69.34
2023-05-05T04:54:35.814Z,69.29
2023-05-05T04:55:10.787Z,69.29
2023-05-05T04:55:44.121Z,69.38
2023-05-05T04:56:17.358Z,69.32
2023-05-05T04:56:51.136Z,69.36
2023-05-05T04:57:24.513Z,69.43
2023-05-05T04:57:58.771Z,69.41
2023-05-05T04:58:32.279Z,69.44
2023-05-05T04:59:05.606Z,69.43
2023-05-05T04:59:39.165Z,69.49
2023-05-05T05:00:13.227Z,69.51
2023-05-05T05:00:46.528Z,69.52
2023-05-05T05:01:19.830Z,69.59
2023-05-05T05:01:53.104Z,69.57
2023-05-05T05:02:27.260Z,69.63
2023-05-05T05:03:00.684Z,69.61
2023-05-05T05:03:37.996Z,69.76
2023-05-05T05:04:11.381Z,69.76
2023-05-05T05:04:44.596Z,69.86
2023-05-05T05:05:20.282Z,69.91
2023-05-05T05:05:53.512Z,69.93
2023-05-05T05:06:27.415Z,69.99
2023-05-05T05:07:01.735Z,70.05
2023-05-05T05:07:35.184Z,70.10
2023-05-05T05:08:08.641Z,70.07
2023-05-05T05:08:41.876Z,70.24
2023-05-05T05:09:15.299Z,70.15
2023-05-05T05:09:48.580Z,70.19
2023-05-05T05:10:23.462Z,70.47
2023-05-05T05:10:56.792Z,70.61
2023-05-05T05:11:30.175Z,70.79
2023-05-05T05:12:04.051Z,70.67
2023-05-05T05:12:37.724Z,70.72
2023-05-05T05:13:12.969Z,70.94
2023-05-05T05:13:46.498Z,71.09
2023-05-05T05:14:19.770Z,70.99
2023-05-05T05:14:53.273Z,70.99
2023-05-05T05:15:26.925Z,71.22
2023-05-05T05:16:01.419Z,71.29
2023-05-05T05:16:34.957Z,71.35
2023-05-05T05:17:08.232Z,71.32
2023-05-05T05:17:41.675Z,71.48
2023-05-05T05:18:15.188Z,71.55
2023-05-05T05:18:48.527Z,71.53
2023-05-05T05:19:22.179Z,71.75
2023-05-05T05:19:56.498Z,71.72
2023-05-05T05:20:33.640Z,71.77
2023-05-05T05:21:07.717Z,71.74
2023-05-05T05:21:41.207Z,71.78
2023-05-05T05:22:17.848Z,71.75
2023-05-05T05:22:54.882Z,71.58
2023-05-05T05:23:28.348Z,71.72
2023-05-05T05:24:01.826Z,71.56
2023-05-05T05:24:36.238Z,71.61
2023-05-05T05:25:09.668Z,71.55
2023-05-05T05:25:43.574Z,71.52
2023-05-05T05:26:17.822Z,71.45
2023-05-05T05:26:52.002Z,71.51
2023-05-05T05:27:25.469Z,71.47
2023-05-05T05:28:09.354Z,71.66
2023-05-05T05:28:46.012Z,71.71
2023-05-05T05:29:20.621Z,71.90
2023-05-05T05:29:54.002Z,72.03
2023-05-05T05:30:27.514Z,71.98
2023-05-05T05:31:30.657Z,72.13
2023-05-05T05:32:27.897Z,72.48
2023-05-05T05:33:10.230Z,72.45
2023-05-05T05:33:44.037Z,72.26
2023-05-05T05:34:17.636Z,72.38
2023-05-05T05:34:51.214Z,72.45
2023-05-05T05:35:24.473Z,72.45
2023-05-05T05:35:57.842Z,72.73
2023-05-05T05:36:32.053Z,72.91
2023-05-05T05:37:05.469Z,72.98
2023-05-05T05:37:38.952Z,72.84
2023-05-05T05:38:13.000Z,72.93
2023-05-05T05:38:46.409Z,72.90
2023-05-05T05:39:19.802Z,72.83
2023-05-05T05:39:53.764Z,72.91
2023-05-05T05:40:27.386Z,72.94
2023-05-05T05:41:06.496Z,73.03
2023-05-05T05:41:39.912Z,73.02
2023-05-05T05:42:13.540Z,73.03
2023-05-05T05:42:46.876Z,72.91
2023-05-05T05:43:20.549Z,72.88
2023-05-05T05:43:53.922Z,72.84
2023-05-05T05:44:27.204Z,72.88
2023-05-05T05:45:00.664Z,72.81
2023-05-05T05:45:34.187Z,72.83
2023-05-05T05:46:09.163Z,72.90
2023-05-05T05:46:43.500Z,72.98
2023-05-05T05:47:19.632Z,72.87
2023-05-05T05:47:55.928Z,72.73
2023-05-05T05:48:29.706Z,72.58
2023-05-05T05:49:03.210Z,72.44
2023-05-05T05:49:37.232Z,72.32
2023-05-05T05:50:11.321Z,72.18
2023-05-05T05:50:44.717Z,71.85
2023-05-05T05:51:18.157Z,71.76
2023-05-05T05:51:51.702Z,71.47
2023-05-05T05:52:25.156Z,71.07
2023-05-05T05:52:58.569Z,70.85
2023-05-05T05:53:32.118Z,70.52
2023-05-05T05:54:05.571Z,70.07
2023-05-05T05:54:38.866Z,69.92
2023-05-05T05:55:12.352Z,69.76
2023-05-05T05:55:47.188Z,69.66
2023-05-05T05:56:20.568Z,69.37
2023-05-05T05:56:53.890Z,69.23
2023-05-05T05:57:28.149Z,68.96
2023-05-05T05:58:03.346Z,68.68
2023-05-05T05:58:37.381Z,67.93
2023-05-05T05:59:10.918Z,67.52
2023-05-05T05:59:44.990Z,67.12
2023-05-05T06:00:18.640Z,66.55
2023-05-05T06:00:53.079Z,66.14
2023-05-05T06:01:27.601Z,65.46
2023-05-05T06:02:01.708Z,65.10
2023-05-05T06:02:35.595Z,64.86
2023-05-05T06:03:09.048Z,64.40
2023-05-05T06:03:43.941Z,64.02
2023-05-05T06:04:17.396Z,63.74
2023-05-05T06:04:50.902Z,63.87
2023-05-05T06:05:24.199Z,63.74
2023-05-05T06:05:59.195Z,63.69
2023-05-05T06:06:32.545Z,63.68
2023-05-05T06:07:06.887Z,64.04
2023-05-05T06:07:42.646Z,64.18
2023-05-05T06:08:16.215Z,64.36
2023-05-05T06:08:52.198Z,64.30
2023-05-05T06:09:25.495Z,64.42
2023-05-05T06:10:01.385Z,64.49
2023-05-05T06:10:42.180Z,64.48
2023-05-05T06:11:18.596Z,64.58
2023-05-05T06:11:52.398Z,64.63
2023-05-05T06:12:25.720Z,64.59
2023-05-05T06:12:59.048Z,64.51
2023-05-05T06:13:32.519Z,64.46
2023-05-05T06:14:05.844Z,64.11
2023-05-05T06:14:39.789Z,64.01
2023-05-05T06:15:13.288Z,63.92
2023-05-05T06:15:46.655Z,63.65
2023-05-05T06:16:20.092Z,63.35
2023-05-05T06:16:53.897Z,63.01
2023-05-05T06:17:28.253Z,62.71
2023-05-05T06:18:02.829Z,62.77
2023-05-05T06:18:36.414Z,62.65
2023-05-05T06:19:10.885Z,62.55
2023-05-05T06:19:44.328Z,62.50
2023-05-05T06:20:17.685Z,61.99
2023-05-05T06:20:51.653Z,62.00
2023-05-05T06:21:25.740Z,61.95
2023-05-05T06:21:59.094Z,61.84
2023-05-05T06:22:32.928Z,61.71
2023-05-05T06:23:06.972Z,61.80
2023-05-05T06:23:42.521Z,61.28
2023-05-05T06:24:17.039Z,61.24
2023-05-05T06:24:50.479Z,60.79
2023-05-05T06:25:23.995Z,61.14
2023-05-05T06:25:57.622Z,61.17
2023-05-05T06:26:31.695Z,61.13
2023-05-05T06:27:05.784Z,61.20
2023-05-05T06:27:38.949Z,61.11
2023-05-05T06:28:12.239Z,60.98
2023-05-05T06:28:45.734Z,60.62
2023-05-05T06:29:18.958Z,60.77
2023-05-05T06:29:52.196Z,60.60
2023-05-05T06:30:26.382Z,60.39
2023-05-05T06:30:59.566Z,60.32
2023-05-05T06:31:33.008Z,59.96
2023-05-05T06:32:08.445Z,59.66
2023-05-05T06:32:41.694Z,59.53
2023-05-05T06:33:15.096Z,59.42
2023-05-05T06:33:48.285Z,59.09
2023-05-05T06:34:21.558Z,58.91
2023-05-05T06:34:54.804Z,58.77
2023-05-05T06:35:28.066Z,58.44
2023-05-05T06:36:01.486Z,57.74
2023-05-05T06:36:34.833Z,57.55
2023-05-05T06:37:08.106Z,57.37
2023-05-05T06:37:41.431Z,57.31
2023-05-05T06:38:14.865Z,56.94
2023-05-05T06:38:48.093Z,56.63
2023-05-05T06:39:21.503Z,56.13
2023-05-05T06:39:54.707Z,55.33
2023-05-05T06:40:27.909Z,54.59
2023-05-05T06:41:01.665Z,54.11
2023-05-05T06:41:35.338Z,53.00
2023-05-05T06:42:08.768Z,53.19
2023-05-05T06:42:42.159Z,53.13
2023-05-05T06:43:17.440Z,53.16
2023-05-05T06:43:54.450Z,52.58
2023-05-05T06:44:28.520Z,52.75
2023-05-05T06:45:01.731Z,52.20
2023-05-05T06:45:35.216Z,51.58
2023-05-05T06:46:08.634Z,51.22
2023-05-05T06:46:43.974Z,51.12
2023-05-05T06:47:17.416Z,50.68
2023-05-05T06:47:50.905Z,51.03
2023-05-05T06:48:24.259Z,50.45
2023-05-05T06:48:57.592Z,50.49
2023-05-05T06:49:31.503Z,50.10
2023-05-05T06:50:05.829Z,48.76
2023-05-05T06:50:39.216Z,49.08
2023-05-05T06:51:12.710Z,48.65
2023-05-05T06:51:45.969Z,47.81
2023-05-05T06:52:19.333Z,47.96
2023-05-05T06:52:53.393Z,47.71
2023-05-05T06:53:26.686Z,47.80
2023-05-05T06:53:59.959Z,47.49
2023-05-05T06:54:33.260Z,46.11
2023-05-05T06:55:07.314Z,44.03
2023-05-05T06:55:44.798Z,42.33
2023-05-05T06:56:18.311Z,41.16
2023-05-05T06:56:51.687Z,41.61
2023-05-05T06:57:24.980Z,40.39
2023-05-05T06:57:58.327Z,41.39
2023-05-05T06:58:31.986Z,40.33
2023-05-05T06:59:05.251Z,40.91
2023-05-05T06:59:38.424Z,40.47
2023-05-05T07:00:12.401Z,41.02
2023-05-05T07:00:45.700Z,41.16
2023-05-05T07:01:19.358Z,41.19
2023-05-05T07:01:52.718Z,39.97
2023-05-05T07:02:26.977Z,40.28
2023-05-05T07:03:00.545Z,40.33
2023-05-05T07:03:34.128Z,40.59
2023-05-05T07:04:07.527Z,40.47
2023-05-05T07:04:41.777Z,40.77
2023-05-05T07:05:15.212Z,40.50
2023-05-05T07:05:48.565Z,40.14
2023-05-05T07:06:21.968Z,40.05
2023-05-05T07:06:55.487Z,39.84
2023-05-05T07:07:28.800Z,38.65
2023-05-05T07:08:02.137Z,38.78
2023-05-05T07:08:35.702Z,38.93
2023-05-05T07:09:08.922Z,37.83
2023-05-05T07:09:42.327Z,37.26
2023-05-05T07:10:15.514Z,37.05
2023-05-05T07:10:48.992Z,37.28
2023-05-05T07:11:22.270Z,36.62
2023-05-05T07:11:55.632Z,36.49
2023-05-05T07:12:33.672Z,36.89
2023-05-05T07:13:08.450Z,36.07
2023-05-05T07:13:42.026Z,36.56
2023-05-05T07:14:15.400Z,35.99
2023-05-05T07:14:48.780Z,35.79
2023-05-05T07:15:27.701Z,35.77
2023-05-05T07:16:02.899Z,36.07
2023-05-05T07:16:37.428Z,35.83
2023-05-05T07:17:11.789Z,35.91
2023-05-05T07:17:45.164Z,35.68
2023-05-05T07:18:20.677Z,35.61
2023-05-05T07:19:07.846Z,35.52
2023-05-05T07:19:41.008Z,36.00
2023-05-05T07:20:14.283Z,36.22
2023-05-05T07:20:47.610Z,35.64
2023-05-05T07:21:21.119Z,35.42
2023-05-05T07:21:54.436Z,35.28
2023-05-05T07:22:27.669Z,35.24
2023-05-05T07:23:00.966Z,35.12
2023-05-05T07:23:34.669Z,34.93
2023-05-05T07:24:07.972Z,34.76
2023-05-05T07:24:41.202Z,34.93
2023-05-05T07:25:14.341Z,34.77
2023-05-05T07:25:47.559Z,34.46
2023-05-05T07:26:21.153Z,34.47
2023-05-05T07:26:54.460Z,34.10
2023-05-05T07:27:27.912Z,34.13
2023-05-05T07:28:01.519Z,33.59
2023-05-05T07:28:35.288Z,33.88
2023-05-05T07:29:08.612Z,34.09
2023-05-05T07:29:41.739Z,34.37
2023-05-05T07:30:17.583Z,34.10
2023-05-05T07:30:52.355Z,33.75
2023-05-05T07:31:26.844Z,33.26
2023-05-05T07:32:00.272Z,33.41
2023-05-05T07:32:33.710Z,33.53
2023-05-05T07:33:07.121Z,33.35
2023-05-05T07:33:40.480Z,33.54
2023-05-05T07:34:15.977Z,33.41
2023-05-05T07:34:49.166Z,33.49
2023-05-05T07:35:23.321Z,33.35
2023-05-05T07:35:56.487Z,33.70
2023-05-05T07:36:29.821Z,33.39
2023-05-05T07:37:04.335Z,33.55
2023-05-05T07:37:37.507Z,33.43
2023-05-05T07:38:11.121Z,33.71
2023-05-05T07:38:44.543Z,33.66
2023-05-05T07:39:19.578Z,33.32
2023-05-05T07:39:52.788Z,33.78
2023-05-05T07:40:26.125Z,33.72
2023-05-05T07:40:59.592Z,33.14
2023-05-05T07:41:33.372Z,32.72
2023-05-05T07:42:07.514Z,32.66
2023-05-05T07:42:40.929Z,33.14
2023-05-05T07:43:14.176Z,32.81
2023-05-05T07:43:47.539Z,33.00
2023-05-05T07:44:20.874Z,33.09
2023-05-05T07:44:54.145Z,33.73
2023-05-05T07:45:29.056Z,34.25
2023-05-05T07:46:02.407Z,34.33
2023-05-05T07:46:35.930Z,34.08
2023-05-05T07:47:09.303Z,34.13
2023-05-05T07:47:42.645Z,33.80
2023-05-05T07:48:15.988Z,33.44
2023-05-05T07:48:49.271Z,33.26